Time;durP1;ratioP1;P1;durP2;ratioP2;P2;SDS_P1;SDS_P2;PMS_P1;PMS_P2;Temp;Humidity;BMP_temperature;BMP_pressure;BME280_temperature;BME280_humidity;BME280_pressure;Samples;Min_cycle;Max_cycle;Signal;HPM_P1;HPM_P2
2023/08/01 00:00:43;;;;;;;4.15;2.58;;;18.90;99.80;;;;;;10581556;28;20235;-88
2023/08/01 00:05:46;;;;;;;5.88;3.03;;;18.90;99.70;;;;;;10582031;28;20193;-87
2023/08/01 00:10:48;;;;;;;5.18;2.70;;;18.90;99.90;;;;;;10581016;28;20356;-88
2023/08/01 00:15:51;;;;;;;4.55;2.33;;;18.80;99.90;;;;;;10563512;28;20193;-88
2023/08/01 00:21:11;;;;;;;3.95;3.10;;;18.80;99.90;;;;;;10580612;28;20192;-87
2023/08/01 00:26:14;;;;;;;7.35;2.80;;;18.80;99.90;;;;;;10562023;28;20261;-88
2023/08/01 00:31:16;;;;;;;3.72;3.03;;;18.80;99.90;;;;;;10562381;28;20662;-89
2023/08/01 00:36:19;;;;;;;6.55;2.97;;;18.80;99.90;;;;;;10580977;28;20249;-88
2023/08/01 00:41:21;;;;;;;5.88;2.30;;;18.70;99.90;;;;;;10561985;28;20321;-88
2023/08/01 00:46:24;;;;;;;4.93;2.80;;;18.70;99.90;;;;;;10561102;28;20621;-87
2023/08/01 00:51:29;;;;;;;3.35;2.15;;;18.80;99.90;;;;;;10580507;28;20220;-88
2023/08/01 00:56:31;;;;;;;6.10;2.83;;;18.80;99.90;;;;;;10561699;28;20631;-88
2023/08/01 01:01:34;;;;;;;2.80;2.38;;;18.70;99.90;;;;;;10561307;28;20216;-88
2023/08/01 01:06:44;;;;;;;3.05;2.55;;;18.70;99.50;;;;;;10561918;28;20866;-88
2023/08/01 01:11:47;;;;;;;3.90;2.30;;;18.80;99.50;;;;;;10579687;28;20221;-88
2023/08/01 01:16:51;;;;;;;5.25;3.10;;;18.80;99.50;;;;;;10579743;28;20197;-88
2023/08/01 01:21:55;;;;;;;3.35;2.58;;;18.80;99.10;;;;;;10578709;28;20250;-88
2023/08/01 01:27:03;;;;;;;3.92;2.72;;;18.80;98.80;;;;;;10579553;28;20193;-87
2023/08/01 01:32:07;;;;;;;3.95;2.80;;;18.80;99.30;;;;;;10579254;28;20220;-88
2023/08/01 01:37:10;;;;;;;4.40;2.42;;;18.80;99.50;;;;;;10563912;28;20234;-88
2023/08/01 01:42:13;;;;;;;3.08;2.30;;;18.70;99.40;;;;;;10569938;28;20200;-88
2023/08/01 01:47:17;;;;;;;2.83;2.55;;;18.80;98.70;;;;;;10587332;28;20201;-88
2023/08/01 01:52:19;;;;;;;2.97;2.55;;;18.70;98.30;;;;;;10587399;28;20588;-88
2023/08/01 01:57:23;;;;;;;9.68;3.60;;;18.80;98.20;;;;;;10567960;28;20660;-88
2023/08/01 02:02:26;;;;;;;6.85;2.50;;;18.70;98.60;;;;;;10551759;28;20721;-88
2023/08/01 02:07:29;;;;;;;3.17;2.65;;;18.70;98.10;;;;;;10586761;28;20220;-88
2023/08/01 02:12:31;;;;;;;4.70;2.80;;;18.70;98.70;;;;;;10568276;28;20228;-88
2023/08/01 02:17:34;;;;;;;3.58;2.47;;;18.70;98.80;;;;;;10586311;28;20197;-88
2023/08/01 02:22:37;;;;;;;3.75;3.00;;;18.70;99.10;;;;;;10567144;28;20205;-87
2023/08/01 02:27:40;;;;;;;4.55;2.90;;;18.70;99.90;;;;;;10566871;28;20201;-88
2023/08/01 02:32:43;;;;;;;5.05;2.72;;;18.60;99.90;;;;;;10550196;28;20596;-88
2023/08/01 02:37:45;;;;;;;5.22;3.00;;;18.60;99.90;;;;;;10586012;28;20189;-88
2023/08/01 02:42:48;;;;;;;6.65;2.67;;;18.50;99.90;;;;;;10567475;28;20249;-88
2023/08/01 02:47:50;;;;;;;5.05;2.90;;;18.40;99.90;;;;;;10565873;28;20278;-87
2023/08/01 02:52:53;;;;;;;4.70;3.42;;;18.30;99.90;;;;;;10565990;28;20217;-87
2023/08/01 02:57:56;;;;;;;4.47;3.35;;;18.30;99.90;;;;;;10566437;28;20744;-88
2023/08/01 03:02:58;;;;;;;4.47;3.22;;;18.20;99.90;;;;;;10565931;28;20250;-87
2023/08/01 03:08:01;;;;;;;4.95;3.38;;;18.20;99.90;;;;;;10584163;28;20937;-87
2023/08/01 03:13:04;;;;;;;4.07;3.13;;;18.10;99.90;;;;;;10566049;28;20262;-88
2023/08/01 03:18:06;;;;;;;7.13;2.92;;;18.00;99.90;;;;;;10548603;28;20208;-88
2023/08/01 03:23:09;;;;;;;7.85;3.05;;;18.00;99.90;;;;;;10565269;28;20273;-88
2023/08/01 03:28:12;;;;;;;5.18;3.20;;;18.00;99.90;;;;;;10583353;28;20543;-88
2023/08/01 03:33:14;;;;;;;3.80;2.75;;;18.00;99.90;;;;;;10547500;28;20220;-87
2023/08/01 03:38:17;;;;;;;4.28;3.17;;;18.00;99.90;;;;;;10563973;28;20254;-87
2023/08/01 03:43:23;;;;;;;4.70;3.20;;;18.00;99.90;;;;;;10582916;28;20197;-88
2023/08/01 03:48:26;;;;;;;6.88;3.85;;;18.00;99.90;;;;;;10582515;28;20261;-87
2023/08/01 03:53:28;;;;;;;11.55;3.38;;;18.00;99.90;;;;;;10564579;28;20209;-88
2023/08/01 03:58:31;;;;;;;3.67;2.92;;;17.90;99.90;;;;;;10563507;28;20213;-88
2023/08/01 04:03:33;;;;;;;4.13;2.95;;;17.90;99.90;;;;;;10581871;28;20193;-88
2023/08/01 04:08:36;;;;;;;4.18;2.97;;;17.90;99.90;;;;;;10563102;28;20290;-88
2023/08/01 04:13:38;;;;;;;4.10;3.28;;;17.90;99.90;;;;;;10580355;28;20216;-88
2023/08/01 04:18:41;;;;;;;4.68;3.50;;;17.90;99.90;;;;;;10581403;28;20197;-87
2023/08/01 04:23:43;;;;;;;4.43;3.05;;;17.90;99.90;;;;;;10581163;28;20226;-88
2023/08/01 04:28:47;;;;;;;4.18;3.13;;;17.90;99.90;;;;;;10580672;28;20205;-88
2023/08/01 04:33:50;;;;;;;5.45;3.45;;;17.90;99.90;;;;;;10562761;28;20213;-88
2023/08/01 04:38:52;;;;;;;5.72;3.92;;;17.80;99.90;;;;;;10562053;28;20257;-88
2023/08/01 04:43:54;;;;;;;4.60;3.38;;;17.80;99.90;;;;;;10580627;28;20201;-88
2023/08/01 04:48:57;;;;;;;4.95;3.33;;;17.70;99.90;;;;;;10579992;28;20236;-87
2023/08/01 04:53:59;;;;;;;5.35;3.33;;;17.70;99.90;;;;;;10579142;28;20278;-87
2023/08/01 04:59:02;;;;;;;4.97;3.10;;;17.60;99.90;;;;;;10578874;28;20201;-88
2023/08/01 05:04:05;;;;;;;6.38;3.60;;;17.70;99.90;;;;;;10579914;28;20208;-88
2023/08/01 05:09:07;;;;;;;3.08;2.85;;;17.70;99.90;;;;;;10578678;28;20592;-88
2023/08/01 05:14:10;;;;;;;6.20;3.95;;;17.80;99.90;;;;;;10560533;28;20702;-88
2023/08/01 05:19:12;;;;;;;4.78;3.78;;;17.80;99.90;;;;;;10579225;28;20250;-88
2023/08/01 05:24:15;;;;;;;6.78;3.72;;;17.90;99.90;;;;;;10560691;28;20209;-88
2023/08/01 05:29:18;;;;;;;6.35;3.72;;;17.90;99.90;;;;;;10578629;28;20209;-88
2023/08/01 05:34:20;;;;;;;5.45;3.28;;;18.00;99.90;;;;;;10578790;28;20591;-88
2023/08/01 05:39:23;;;;;;;6.57;4.13;;;18.10;99.90;;;;;;10578479;28;20559;-88
2023/08/01 05:44:26;;;;;;;3.55;2.78;;;18.20;99.90;;;;;;10578390;28;20196;-88
2023/08/01 05:49:29;;;;;;;4.78;2.40;;;18.10;99.90;;;;;;10560417;28;20577;-88
2023/08/01 05:54:32;;;;;;;7.28;3.88;;;18.20;99.90;;;;;;10578192;28;20225;-88
2023/08/01 05:59:36;;;;;;;6.53;3.70;;;18.20;99.90;;;;;;10543750;28;20261;-88
2023/08/01 06:04:38;;;;;;;6.70;3.65;;;18.20;99.90;;;;;;10577866;28;20205;-88
2023/08/01 06:09:41;;;;;;;4.63;3.35;;;18.30;99.90;;;;;;10560435;28;20258;-88
2023/08/01 06:14:44;;;;;;;6.05;3.85;;;18.30;99.90;;;;;;10560489;28;20213;-88
2023/08/01 06:19:47;;;;;;;4.88;3.38;;;18.20;99.90;;;;;;10560307;28;20250;-88
2023/08/01 06:24:50;;;;;;;5.05;3.17;;;18.30;99.90;;;;;;10582069;28;20212;-88
2023/08/01 06:29:52;;;;;;;6.20;4.10;;;18.40;99.90;;;;;;10567183;28;20205;-88
2023/08/01 06:34:55;;;;;;;5.88;3.40;;;18.50;99.90;;;;;;10566727;28;20360;-88
2023/08/01 06:39:59;;;;;;;6.55;3.65;;;18.70;99.90;;;;;;10585023;28;20618;-88
2023/08/01 06:45:01;;;;;;;7.85;3.72;;;18.70;99.90;;;;;;10567321;28;20193;-88
2023/08/01 06:50:04;;;;;;;4.93;2.90;;;18.70;99.90;;;;;;10584881;28;20614;-88
2023/08/01 06:55:07;;;;;;;5.88;4.10;;;18.70;99.90;;;;;;10583968;28;20224;-88
2023/08/01 07:00:11;;;;;;;3.92;3.13;;;18.70;99.90;;;;;;10584299;28;20242;-88
2023/08/01 07:05:13;;;;;;;4.88;2.92;;;18.60;99.90;;;;;;10565695;28;20559;-88
2023/08/01 07:10:16;;;;;;;5.03;4.40;;;18.70;99.90;;;;;;10584082;28;20228;-88
2023/08/01 07:15:19;;;;;;;8.88;3.28;;;18.80;99.90;;;;;;10583395;28;20225;-87
2023/08/01 07:20:21;;;;;;;6.80;4.40;;;18.90;99.90;;;;;;10583851;28;20185;-88
2023/08/01 07:25:25;;;;;;;4.68;2.90;;;19.30;99.90;;;;;;10583069;28;20205;-87
2023/08/01 07:30:28;;;;;;;11.63;5.15;;;19.70;99.90;;;;;;10564598;28;20917;-88
2023/08/01 07:35:30;;;;;;;4.15;3.70;;;19.60;99.90;;;;;;10581803;28;20220;-88
2023/08/01 07:40:36;;;;;;;5.68;3.72;;;19.60;99.90;;;;;;10582290;28;20193;-88
2023/08/01 07:45:38;;;;;;;2.90;2.05;;;19.70;99.90;;;;;;10563815;28;20553;-88
2023/08/01 07:50:41;;;;;;;5.68;3.90;;;19.70;99.90;;;;;;10582733;28;20197;-88
2023/08/01 07:55:44;;;;;;;3.00;2.25;;;19.80;99.90;;;;;;10582589;28;20213;-88
2023/08/01 08:00:46;;;;;;;4.78;3.60;;;20.10;99.90;;;;;;10564128;28;20209;-87
2023/08/01 08:05:49;;;;;;;5.43;3.55;;;20.10;99.90;;;;;;10563874;28;20219;-87
2023/08/01 08:10:52;;;;;;;3.30;2.63;;;20.00;99.90;;;;;;10581849;28;20258;-88
2023/08/01 08:15:59;;;;;;;4.50;4.10;;;20.00;99.90;;;;;;10563226;28;20224;-88
2023/08/01 08:21:02;;;;;;;4.97;3.80;;;19.90;99.90;;;;;;10581973;28;20193;-88
2023/08/01 08:26:05;;;;;;;5.55;4.30;;;19.90;99.90;;;;;;10581692;28;20584;-88
2023/08/01 08:31:08;;;;;;;3.72;3.03;;;20.00;99.90;;;;;;10581067;28;20257;-88
2023/08/01 08:36:11;;;;;;;8.35;3.60;;;20.00;99.90;;;;;;10580066;28;20224;-88
2023/08/01 08:41:19;;;;;;;5.50;3.47;;;20.00;99.90;;;;;;10580687;28;20189;-88
2023/08/01 08:46:27;;;;;;;4.25;3.05;;;20.20;99.90;;;;;;10578668;28;20212;-88
2023/08/01 08:51:31;;;;;;;5.25;3.53;;;20.20;99.90;;;;;;10562310;28;20544;-88
2023/08/01 08:56:35;;;;;;;6.80;3.25;;;20.10;99.90;;;;;;10579020;28;20587;-88
2023/08/01 09:01:38;;;;;;;5.60;3.03;;;20.00;99.90;;;;;;10561421;28;20205;-88
2023/08/01 09:06:48;;;;;;;2.97;2.70;;;19.90;99.90;;;;;;10561349;28;20232;-88
2023/08/01 09:11:56;;;;;;;4.65;3.45;;;19.90;99.90;;;;;;10579406;28;20261;-88
2023/08/01 09:17:11;;;;;;;3.33;3.03;;;19.90;99.90;;;;;;10579343;28;20208;-88
2023/08/01 09:22:16;;;;;;;3.25;2.65;;;19.90;99.90;;;;;;10561516;28;20189;-88
2023/08/01 09:27:22;;;;;;;3.45;2.63;;;20.00;99.90;;;;;;10579260;28;20185;-88
2023/08/01 09:32:24;;;;;;;3.55;2.60;;;20.00;99.90;;;;;;10578789;28;20201;-88
2023/08/01 09:37:40;;;;;;;3.42;2.22;;;20.00;99.90;;;;;;10579801;28;20197;-88
2023/08/01 09:42:45;;;;;;;3.58;2.08;;;20.10;99.90;;;;;;10578739;28;20572;-88
2023/08/01 09:47:47;;;;;;;4.25;3.13;;;20.10;99.90;;;;;;10560561;28;20584;-88
2023/08/01 09:52:52;;;;;;;5.20;3.03;;;20.00;99.90;;;;;;10578442;28;20233;-88
2023/08/01 09:57:58;;;;;;;2.65;2.45;;;19.80;99.90;;;;;;10581404;28;20205;-88
2023/08/01 10:03:02;;;;;;;2.67;2.33;;;19.60;99.90;;;;;;10586878;28;20205;-88
2023/08/01 10:08:06;;;;;;;6.45;2.58;;;19.70;99.90;;;;;;10586286;28;20242;-88
2023/08/01 10:13:12;;;;;;;3.03;2.22;;;19.60;99.90;;;;;;10586637;28;20603;-87
2023/08/01 10:18:15;;;;;;;2.40;2.20;;;19.50;99.90;;;;;;10567183;28;20747;-88
2023/08/01 10:23:19;;;;;;;5.55;2.60;;;19.50;99.90;;;;;;10586399;28;20197;-88
2023/08/01 10:28:34;;;;;;;2.28;2.03;;;19.50;99.90;;;;;;10567550;28;20201;-87
2023/08/01 10:33:40;;;;;;;4.20;3.65;;;19.50;99.90;;;;;;10585528;28;20212;-88
2023/08/01 10:38:54;;;;;;;3.85;3.42;;;19.50;99.90;;;;;;10584582;28;20613;-88
2023/08/01 10:44:10;;;;;;;6.53;3.72;;;19.50;99.90;;;;;;10584469;28;20197;-87
2023/08/01 10:49:13;;;;;;;4.38;3.97;;;19.70;99.90;;;;;;10566766;28;20667;-87
2023/08/01 10:54:23;;;;;;;7.40;4.15;;;19.90;99.90;;;;;;10565965;28;20225;-88
2023/08/01 10:59:25;;;;;;;14.25;5.60;;;20.10;99.90;;;;;;10565818;28;20262;-88
2023/08/01 11:04:28;;;;;;;5.15;3.28;;;20.10;99.90;;;;;;10583429;28;20208;-87
2023/08/01 11:09:31;;;;;;;7.32;6.00;;;20.10;99.90;;;;;;10532239;28;20306;-87
2023/08/01 11:14:33;;;;;;;10.35;5.55;;;20.20;99.90;;;;;;10541207;28;20221;-88
2023/08/01 11:19:36;;;;;;;3.90;3.58;;;20.20;99.90;;;;;;10541627;28;20259;-88
2023/08/01 11:24:39;;;;;;;6.35;5.65;;;20.40;99.90;;;;;;10523020;28;20266;-88
2023/08/01 11:29:42;;;;;;;6.63;5.68;;;20.50;99.90;;;;;;10541403;28;20644;-88
2023/08/01 11:34:46;;;;;;;5.30;4.80;;;20.70;99.90;;;;;;10540777;28;20266;-87
2023/08/01 11:39:52;;;;;;;6.72;5.57;;;20.70;99.90;;;;;;10523637;28;20244;-87
2023/08/01 11:45:11;;;;;;;7.47;6.50;;;20.70;99.90;;;;;;10540948;28;20611;-88
2023/08/01 11:50:15;;;;;;;8.55;7.60;;;20.80;99.90;;;;;;10540463;28;20254;-87
2023/08/01 11:55:22;;;;;;;5.60;4.95;;;20.80;99.90;;;;;;10521844;28;20225;-87
2023/08/01 12:00:27;;;;;;;4.72;3.53;;;20.60;99.90;;;;;;10539964;28;20198;-88
2023/08/01 12:05:31;;;;;;;9.98;7.40;;;20.40;99.90;;;;;;10521533;28;20217;-87
2023/08/01 12:10:39;;;;;;;2.83;2.00;;;20.30;99.90;;;;;;10521602;28;20606;-88
2023/08/01 12:15:41;;;;;;;1.92;1.73;;;20.20;99.90;;;;;;10504698;28;20229;-87
2023/08/01 12:20:44;;;;;;;2.13;1.67;;;20.30;98.20;;;;;;10538812;28;20214;-87
2023/08/01 12:25:47;;;;;;;1.58;1.48;;;20.40;98.30;;;;;;10539353;28;20202;-87
2023/08/01 12:30:51;;;;;;;3.58;1.52;;;20.40;95.50;;;;;;10538146;28;20205;-88
2023/08/01 12:35:53;;;;;;;1.77;1.35;;;20.40;97.00;;;;;;10520127;28;20275;-88
2023/08/01 12:40:56;;;;;;;6.43;1.83;;;20.40;96.10;;;;;;10537923;28;20236;-88
2023/08/01 12:45:59;;;;;;;2.28;2.08;;;20.30;98.90;;;;;;10537190;28;20291;-87
2023/08/01 12:51:02;;;;;;;1.52;1.42;;;20.20;94.30;;;;;;10538137;28;20197;-88
2023/08/01 12:56:05;;;;;;;1.67;1.40;;;20.20;94.30;;;;;;10537427;28;20217;-88
2023/08/01 13:01:08;;;;;;;1.23;1.05;;;20.30;97.40;;;;;;10537178;28;20227;-88
2023/08/01 13:06:12;;;;;;;3.58;1.75;;;20.60;99.90;;;;;;10519387;27;20606;-88
2023/08/01 13:11:15;;;;;;;2.10;2.00;;;21.00;97.50;;;;;;10538386;28;20198;-88
2023/08/01 13:16:18;;;;;;;2.75;1.95;;;21.30;95.10;;;;;;10537800;28;20661;-88
2023/08/01 13:21:22;;;;;;;1.92;1.83;;;21.40;98.30;;;;;;10537921;28;20190;-87
2023/08/01 13:41:36;;;;;;;3.45;2.22;;;21.70;95.30;;;;;;10573805;27;20573;-86
2023/08/01 13:46:39;;;;;;;2.88;1.80;;;21.70;96.00;;;;;;10531191;28;20263;-86
2023/08/01 13:51:41;;;;;;;2.05;1.65;;;21.80;94.20;;;;;;10531310;28;20656;-86
2023/08/01 13:56:44;;;;;;;1.73;1.63;;;21.90;92.20;;;;;;10530116;28;20570;-86
2023/08/01 14:01:47;;;;;;;2.50;2.30;;;22.00;92.30;;;;;;10530142;28;20267;-86
2023/08/01 14:06:49;;;;;;;1.70;1.60;;;22.00;93.40;;;;;;10529638;28;20214;-86
2023/08/01 14:11:52;;;;;;;2.42;2.22;;;22.00;91.60;;;;;;10530374;28;20194;-86
2023/08/01 14:16:54;;;;;;;2.42;1.95;;;21.90;89.60;;;;;;10530157;28;20194;-86
2023/08/01 14:21:57;;;;;;;2.42;2.22;;;22.10;92.40;;;;;;10528517;28;20210;-86
2023/08/01 14:27:00;;;;;;;2.22;2.03;;;22.10;90.80;;;;;;10528751;28;20245;-86
2023/08/01 14:32:03;;;;;;;2.40;2.20;;;21.90;94.70;;;;;;10529579;28;20194;-86
2023/08/01 14:37:06;;;;;;;2.28;2.08;;;21.80;92.20;;;;;;10533320;28;20225;-86
2023/08/01 14:42:08;;;;;;;2.40;2.13;;;21.80;95.00;;;;;;10527435;28;20197;-86
2023/08/01 14:47:11;;;;;;;2.33;1.92;;;21.60;91.80;;;;;;10542953;28;20318;-86
2023/08/01 14:52:13;;;;;;;2.20;2.00;;;21.40;91.50;;;;;;10542778;28;20220;-86
2023/08/01 14:57:16;;;;;;;2.50;2.30;;;21.30;94.50;;;;;;10542780;28;20215;-86
2023/08/01 15:02:19;;;;;;;3.20;1.77;;;21.40;92.10;;;;;;10542422;28;20656;-86
2023/08/01 15:07:24;;;;;;;1.90;1.80;;;21.50;91.70;;;;;;10542263;28;20567;-86
2023/08/01 15:12:27;;;;;;;2.08;1.88;;;21.60;92.40;;;;;;10524237;28;20306;-86
2023/08/01 15:17:29;;;;;;;2.38;1.85;;;21.70;99.90;;;;;;10542154;28;20247;-86
2023/08/01 15:22:32;;;;;;;1.95;1.83;;;21.70;99.90;;;;;;10541003;28;20616;-86
2023/08/01 15:27:35;;;;;;;3.05;1.83;;;21.90;95.70;;;;;;10540488;28;20282;-86
2023/08/01 15:32:37;;;;;;;2.05;1.73;;;22.20;93.40;;;;;;10540180;28;20206;-86
2023/08/01 15:37:40;;;;;;;2.75;0.98;;;22.20;90.40;;;;;;10505792;28;20652;-86
2023/08/01 15:42:42;;;;;;;2.13;1.92;;;22.10;91.60;;;;;;10522707;28;20205;-86
2023/08/01 15:47:45;;;;;;;2.10;1.90;;;21.90;88.00;;;;;;10540485;28;20222;-86
2023/08/01 15:52:47;;;;;;;1.80;1.70;;;21.80;86.50;;;;;;10538455;28;20613;-86
2023/08/01 15:57:50;;;;;;;1.55;1.40;;;21.70;91.60;;;;;;10522383;28;20566;-87
2023/08/01 16:02:52;;;;;;;1.52;1.42;;;21.70;91.10;;;;;;10540124;28;20197;-86
2023/08/01 16:07:55;;;;;;;1.52;1.42;;;21.60;90.20;;;;;;10539732;28;20267;-87
2023/08/01 16:12:57;;;;;;;1.50;1.40;;;21.40;92.30;;;;;;10521233;28;20197;-86
2023/08/01 16:18:00;;;;;;;3.42;1.80;;;21.40;93.20;;;;;;10521081;28;20201;-86
2023/08/01 16:23:03;;;;;;;1.95;1.75;;;21.30;91.80;;;;;;10539402;28;20558;-87
2023/08/01 16:28:05;;;;;;;1.15;1.05;;;21.30;90.00;;;;;;10538105;28;20632;-86
2023/08/01 16:33:08;;;;;;;1.90;1.80;;;21.30;94.20;;;;;;10538149;28;20202;-86
2023/08/01 16:38:10;;;;;;;1.98;1.85;;;21.20;92.20;;;;;;10538678;28;20229;-86
2023/08/01 16:43:13;;;;;;;1.67;1.58;;;21.10;94.30;;;;;;10520444;28;20194;-85
2023/08/01 16:48:15;;;;;;;2.10;1.88;;;21.00;93.00;;;;;;10519335;28;20707;-86
2023/08/01 16:53:18;;;;;;;1.80;1.35;;;20.90;94.20;;;;;;10537577;28;20193;-86
2023/08/01 16:58:21;;;;;;;1.83;1.73;;;20.90;97.30;;;;;;10520216;28;20197;-85
2023/08/01 17:03:24;;;;;;;2.08;1.88;;;20.80;95.80;;;;;;10537732;28;20194;-87
2023/08/01 17:08:26;;;;;;;2.17;1.95;;;20.80;95.20;;;;;;10537742;28;20214;-86
2023/08/01 17:13:29;;;;;;;2.38;1.83;;;20.70;94.90;;;;;;10537548;28;20530;-86
2023/08/01 17:18:32;;;;;;;3.75;1.70;;;20.70;96.00;;;;;;10537864;28;20194;-86
2023/08/01 17:23:34;;;;;;;2.17;1.92;;;20.70;98.30;;;;;;10519686;28;20559;-86
2023/08/01 17:28:37;;;;;;;2.13;1.92;;;20.60;93.00;;;;;;10502373;28;20225;-86
2023/08/01 17:33:40;;;;;;;2.22;2.03;;;20.70;91.80;;;;;;10518741;28;20201;-86
2023/08/01 17:38:42;;;;;;;1.75;1.65;;;20.70;93.20;;;;;;10536911;28;20234;-86
2023/08/01 17:43:45;;;;;;;3.78;1.75;;;20.70;93.10;;;;;;10519156;28;20561;-87
2023/08/01 17:48:48;;;;;;;2.22;2.00;;;20.60;92.90;;;;;;10535930;28;20218;-86
2023/08/01 17:53:51;;;;;;;2.05;1.88;;;20.50;93.50;;;;;;10536866;28;20198;-86
2023/08/01 17:58:53;;;;;;;2.40;2.20;;;20.50;94.10;;;;;;10536521;28;20258;-87
2023/08/01 18:03:56;;;;;;;2.30;1.70;;;20.50;93.00;;;;;;10518133;28;20202;-87
2023/08/01 18:08:59;;;;;;;1.42;1.33;;;20.40;94.40;;;;;;10517905;28;20221;-87
2023/08/01 18:14:02;;;;;;;4.57;2.20;;;20.30;95.90;;;;;;10537810;28;20541;-86
2023/08/01 18:19:04;;;;;;;2.20;2.00;;;20.20;93.80;;;;;;10544321;28;20190;-87
2023/08/01 18:24:07;;;;;;;2.55;1.10;;;20.30;94.60;;;;;;10543112;28;20201;-87
2023/08/01 18:29:10;;;;;;;1.60;1.50;;;20.20;95.80;;;;;;10543849;28;20272;-87
2023/08/01 18:34:13;;;;;;;2.20;2.08;;;20.10;96.30;;;;;;10543162;28;20279;-87
2023/08/01 18:39:16;;;;;;;2.17;1.98;;;20.10;94.80;;;;;;10542463;28;20260;-86
2023/08/01 18:44:19;;;;;;;1.50;1.40;;;20.10;95.60;;;;;;10524549;28;20628;-87
2023/08/01 18:49:21;;;;;;;2.25;1.77;;;20.20;96.60;;;;;;10543041;28;20221;-86
2023/08/01 18:54:24;;;;;;;1.90;1.70;;;20.00;95.40;;;;;;10541512;28;20282;-86
2023/08/01 18:59:26;;;;;;;2.47;2.20;;;19.90;95.50;;;;;;10524614;28;20198;-86
2023/08/01 19:04:29;;;;;;;2.33;2.13;;;19.90;95.20;;;;;;10541886;28;20209;-86
2023/08/01 19:09:32;;;;;;;1.83;1.73;;;19.90;94.60;;;;;;10542597;28;20251;-87
2023/08/01 19:14:35;;;;;;;2.47;2.22;;;19.90;95.20;;;;;;10524105;28;20198;-87
2023/08/01 19:19:37;;;;;;;2.47;2.28;;;19.70;94.70;;;;;;10542011;28;20251;-86
2023/08/01 19:24:40;;;;;;;2.40;2.20;;;19.70;95.90;;;;;;10506359;28;20205;-87
2023/08/01 19:29:42;;;;;;;1.70;1.48;;;19.60;96.60;;;;;;10541206;28;20589;-86
2023/08/01 19:34:49;;;;;;;3.85;2.08;;;19.50;99.40;;;;;;10522876;28;20197;-87
2023/08/01 19:39:52;;;;;;;2.10;1.85;;;19.50;97.60;;;;;;10540799;28;20286;-86
2023/08/01 19:44:55;;;;;;;3.28;2.97;;;19.50;99.00;;;;;;10539894;28;20210;-87
2023/08/01 19:49:57;;;;;;;2.40;1.65;;;19.40;97.90;;;;;;10521928;28;20225;-86
2023/08/01 19:55:00;;;;;;;2.20;1.90;;;19.30;98.70;;;;;;10539838;28;20202;-87
2023/08/01 20:00:06;;;;;;;2.88;2.30;;;19.30;97.60;;;;;;10522379;28;20663;-87
2023/08/01 20:05:13;;;;;;;2.05;1.85;;;19.30;98.00;;;;;;10540156;28;20270;-87
2023/08/01 20:10:16;;;;;;;3.83;1.45;;;19.10;99.90;;;;;;10539646;28;20243;-87
2023/08/01 20:15:19;;;;;;;3.38;2.25;;;18.90;99.90;;;;;;10539111;28;20213;-87
2023/08/01 20:20:22;;;;;;;2.70;2.47;;;18.70;99.90;;;;;;10539579;28;20198;-87
2023/08/01 20:25:25;;;;;;;3.90;1.83;;;18.70;99.90;;;;;;10521378;28;20567;-87
2023/08/01 20:30:27;;;;;;;1.67;1.58;;;18.70;99.90;;;;;;10539014;28;20666;-87
2023/08/01 20:35:30;;;;;;;4.90;2.33;;;18.70;99.90;;;;;;10521108;28;20255;-87
2023/08/01 20:40:33;;;;;;;2.88;1.73;;;18.60;99.90;;;;;;10537192;28;20260;-87
2023/08/01 20:45:36;;;;;;;2.72;2.00;;;18.60;99.90;;;;;;10538417;28;20202;-87
2023/08/01 20:50:38;;;;;;;2.20;2.00;;;18.50;99.90;;;;;;10520002;28;20780;-87
2023/08/01 20:55:41;;;;;;;1.92;1.75;;;18.40;99.90;;;;;;10538480;28;20247;-87
2023/08/01 21:00:43;;;;;;;6.15;2.38;;;18.50;99.90;;;;;;10519813;28;20222;-87
2023/08/01 21:05:46;;;;;;;2.20;2.00;;;18.30;99.90;;;;;;10520219;28;20250;-87
2023/08/01 21:10:48;;;;;;;2.95;2.30;;;18.10;99.90;;;;;;10537605;28;20213;-87
2023/08/01 21:15:51;;;;;;;2.35;2.00;;;17.90;99.90;;;;;;10519618;28;20223;-87
2023/08/01 21:20:54;;;;;;;2.50;1.77;;;17.80;99.90;;;;;;10536846;28;20210;-87
2023/08/01 21:25:56;;;;;;;2.67;1.70;;;17.80;99.90;;;;;;10537447;28;20193;-87
2023/08/01 21:30:59;;;;;;;1.92;1.73;;;17.70;99.90;;;;;;10537260;28;20213;-87
2023/08/01 21:36:01;;;;;;;1.70;1.60;;;17.70;99.90;;;;;;10537141;28;20189;-87
2023/08/01 21:41:04;;;;;;;1.67;1.58;;;17.60;99.90;;;;;;10536395;28;20233;-87
2023/08/01 21:46:07;;;;;;;4.13;1.90;;;17.50;99.90;;;;;;10536951;28;20202;-87
2023/08/01 21:51:09;;;;;;;3.08;1.52;;;17.40;99.90;;;;;;10542052;28;20213;-87
2023/08/01 21:56:12;;;;;;;1.88;1.40;;;17.40;99.90;;;;;;10526769;28;20665;-87
2023/08/01 22:01:14;;;;;;;1.70;1.42;;;17.70;99.90;;;;;;10526385;28;20748;-87
2023/08/01 22:06:18;;;;;;;1.55;1.45;;;17.70;99.90;;;;;;10526105;28;20679;-87
2023/08/01 22:11:21;;;;;;;1.85;1.75;;;17.70;99.90;;;;;;10543759;28;20225;-87
2023/08/01 22:16:23;;;;;;;2.00;1.45;;;17.70;99.90;;;;;;10525750;28;20570;-87
2023/08/01 22:21:26;;;;;;;2.08;1.42;;;17.70;99.90;;;;;;10543905;28;20206;-87
2023/08/01 22:26:29;;;;;;;4.43;1.73;;;17.70;99.90;;;;;;10544729;28;20194;-87
2023/08/01 22:31:33;;;;;;;1.92;1.70;;;17.90;99.90;;;;;;10544203;28;20626;-87
2023/08/01 22:36:37;;;;;;;2.20;1.60;;;17.90;99.50;;;;;;10543445;28;20219;-86
2023/08/01 22:41:40;;;;;;;1.98;1.80;;;18.00;99.10;;;;;;10543510;28;20194;-87
2023/08/01 22:46:43;;;;;;;2.00;1.70;;;18.00;98.90;;;;;;10508583;28;20274;-87
2023/08/01 22:51:46;;;;;;;2.08;1.58;;;18.10;98.80;;;;;;10542035;28;20275;-87
2023/08/01 22:56:48;;;;;;;3.15;2.20;;;18.00;98.70;;;;;;10541819;28;20205;-87
2023/08/01 23:01:51;;;;;;;2.78;1.85;;;18.10;98.40;;;;;;10542071;28;20198;-87
2023/08/01 23:06:54;;;;;;;1.75;1.65;;;18.00;98.60;;;;;;10524619;28;20194;-87
2023/08/01 23:11:56;;;;;;;1.58;1.48;;;17.90;99.10;;;;;;10542239;28;20274;-87
2023/08/01 23:16:59;;;;;;;2.17;1.38;;;17.70;99.50;;;;;;10541338;28;20205;-87
2023/08/01 23:22:01;;;;;;;2.15;1.50;;;17.60;99.90;;;;;;10542163;28;20198;-87
2023/08/01 23:27:04;;;;;;;4.28;1.80;;;17.50;99.90;;;;;;10541569;28;20258;-87
2023/08/01 23:32:07;;;;;;;4.18;1.38;;;17.20;99.90;;;;;;10541295;28;20259;-87
2023/08/01 23:37:10;;;;;;;1.75;1.65;;;17.20;99.90;;;;;;10541180;28;20229;-87
2023/08/01 23:42:12;;;;;;;4.07;1.77;;;17.00;99.90;;;;;;10506705;28;20198;-87
2023/08/01 23:47:14;;;;;;;1.45;1.35;;;17.20;99.90;;;;;;10540729;28;20197;-87
2023/08/01 23:52:17;;;;;;;4.88;1.60;;;17.00;99.90;;;;;;10522427;28;20614;-87
2023/08/01 23:57:19;;;;;;;3.42;1.58;;;16.90;99.90;;;;;;10522072;28;20205;-87
